createdAt,value
2022-08-02T00:00:36.387Z,82.90
2022-08-02T00:03:04.218Z,83.00
2022-08-02T00:05:32.129Z,82.80
2022-08-02T00:07:59.930Z,82.90
2022-08-02T00:10:27.766Z,82.90
2022-08-02T00:12:55.605Z,83.10
2022-08-02T00:15:24.836Z,83.20
2022-08-02T00:17:52.639Z,83.20
2022-08-02T00:20:20.574Z,83.00
2022-08-02T00:22:48.348Z,83.10
2022-08-02T00:25:16.121Z,83.10
2022-08-02T00:27:44.036Z,83.30
2022-08-02T00:30:12.665Z,83.30
2022-08-02T00:32:41.793Z,83.30
2022-08-02T00:35:10.386Z,83.30
2022-08-02T00:37:40.669Z,83.20
2022-08-02T00:40:09.734Z,83.20
2022-08-02T00:42:37.647Z,83.10
2022-08-02T00:45:06.310Z,83.90
2022-08-02T00:47:34.103Z,83.20
2022-08-02T00:50:03.335Z,83.30
2022-08-02T00:52:31.114Z,83.20
2022-08-02T00:54:59.226Z,83.20
2022-08-02T00:57:27.002Z,83.40
2022-08-02T00:59:54.803Z,83.60
2022-08-02T01:02:22.636Z,83.50
2022-08-02T01:04:50.470Z,83.70
2022-08-02T01:07:19.630Z,83.70
2022-08-02T01:09:47.590Z,83.50
2022-08-02T01:12:15.973Z,83.50
2022-08-02T01:14:46.968Z,83.50
2022-08-02T01:17:33.927Z,83.60
2022-08-02T01:20:35.207Z,83.70
2022-08-02T01:23:32.347Z,83.70
2022-08-02T01:26:24.622Z,83.70
2022-08-02T01:28:58.940Z,83.70
2022-08-02T01:31:31.794Z,83.60
2022-08-02T01:34:05.326Z,83.70
2022-08-02T01:36:38.933Z,83.70
2022-08-02T01:39:11.760Z,83.70
2022-08-02T01:41:58.838Z,83.80
2022-08-02T01:44:31.531Z,83.80
2022-08-02T01:47:03.034Z,83.90
2022-08-02T01:49:34.695Z,83.90
2022-08-02T01:52:23.248Z,83.90
2022-08-02T01:54:55.086Z,84.00
2022-08-02T01:57:25.465Z,84.10
2022-08-02T01:59:58.765Z,84.10
2022-08-02T02:02:31.800Z,84.10
2022-08-02T02:05:02.898Z,84.00
2022-08-02T02:07:32.841Z,84.20
2022-08-02T02:10:01.869Z,84.30
2022-08-02T02:12:30.687Z,84.20
2022-08-02T02:15:01.429Z,84.20
2022-08-02T02:17:52.679Z,84.30
2022-08-02T02:20:20.105Z,84.40
2022-08-02T02:22:49.848Z,84.40
2022-08-02T02:25:34.265Z,84.30
2022-08-02T02:28:07.164Z,84.30
2022-08-02T02:30:39.074Z,84.40
2022-08-02T02:33:10.373Z,84.40
2022-08-02T02:35:39.258Z,84.40
2022-08-02T02:38:12.162Z,84.40
2022-08-02T02:40:44.972Z,84.30
2022-08-02T02:43:14.732Z,84.30
2022-08-02T02:45:45.957Z,84.40
2022-08-02T02:52:06.415Z,84.40
2022-08-02T02:54:35.605Z,85.10
2022-08-02T02:57:06.462Z,84.40
2022-08-02T02:59:34.946Z,84.50
2022-08-02T03:02:05.505Z,84.60
2022-08-02T03:04:55.470Z,84.60
2022-08-02T03:07:22.663Z,84.60
2022-08-02T03:09:53.902Z,84.50
2022-08-02T03:12:27.146Z,84.60
2022-08-02T03:14:59.773Z,84.60
2022-08-02T03:17:39.865Z,84.60
2022-08-02T03:20:11.470Z,84.40
2022-08-02T03:22:39.297Z,84.40
2022-08-02T03:25:08.501Z,84.50
2022-08-02T03:27:36.511Z,84.60
2022-08-02T03:30:06.627Z,84.60
2022-08-02T03:32:36.976Z,84.60
2022-08-02T03:35:07.757Z,84.70
2022-08-02T03:37:37.864Z,84.80
2022-08-02T03:40:09.468Z,84.60
2022-08-02T03:42:37.542Z,84.70
2022-08-02T03:45:09.088Z,84.50
2022-08-02T03:47:39.428Z,84.20
2022-08-02T03:50:08.565Z,84.30
2022-08-02T03:52:37.112Z,84.30
2022-08-02T03:55:05.614Z,84.40
2022-08-02T03:57:33.485Z,84.70
2022-08-02T04:00:01.271Z,84.60
2022-08-02T04:02:29.009Z,84.60
2022-08-02T04:04:58.112Z,84.60
2022-08-02T04:08:02.551Z,84.60
2022-08-02T04:10:13.772Z,84.50
2022-08-02T04:12:40.684Z,84.60
2022-08-02T04:15:10.243Z,84.60
2022-08-02T04:17:42.734Z,84.70
2022-08-02T04:20:18.806Z,84.70
2022-08-02T04:22:52.184Z,84.70
2022-08-02T04:25:21.924Z,84.80
2022-08-02T04:28:17.563Z,84.80
2022-08-02T04:30:47.194Z,84.80
2022-08-02T04:33:15.379Z,84.70
2022-08-02T04:35:45.492Z,84.70
2022-08-02T04:38:14.678Z,84.80
2022-08-02T04:40:50.606Z,84.90
2022-08-02T04:43:18.386Z,84.90
2022-08-02T04:45:47.973Z,84.90
2022-08-02T04:48:15.734Z,84.90
2022-08-02T04:50:44.927Z,84.80
2022-08-02T04:53:12.747Z,84.90
2022-08-02T04:55:40.519Z,85.00
2022-08-02T04:58:37.027Z,84.90
2022-08-02T05:00:56.138Z,84.80
2022-08-02T05:03:23.971Z,84.90
2022-08-02T05:05:53.299Z,85.00
2022-08-02T05:08:21.065Z,85.00
2022-08-02T05:10:48.836Z,85.10
2022-08-02T05:13:16.588Z,85.00
2022-08-02T05:15:44.482Z,85.20
2022-08-02T05:18:12.265Z,85.10
2022-08-02T05:20:41.027Z,85.10
2022-08-02T05:23:10.140Z,85.10
2022-08-02T05:25:37.890Z,85.20
2022-08-02T05:28:11.002Z,85.20
2022-08-02T05:30:39.515Z,85.20
2022-08-02T05:33:07.380Z,85.20
2022-08-02T05:35:35.142Z,85.20
2022-08-02T05:38:03.110Z,85.20
2022-08-02T05:40:32.983Z,85.20
2022-08-02T05:43:00.709Z,85.30
2022-08-02T05:45:28.613Z,85.30
2022-08-02T05:47:56.357Z,85.40
2022-08-02T05:50:24.548Z,85.20
2022-08-02T05:52:57.691Z,85.40
2022-08-02T05:55:29.059Z,85.30
2022-08-02T05:58:05.016Z,85.30
2022-08-02T06:00:35.344Z,85.30
2022-08-02T06:03:17.554Z,85.30
2022-08-02T06:05:54.631Z,85.20
2022-08-02T06:08:25.700Z,85.10
2022-08-02T06:10:57.430Z,85.20
2022-08-02T06:13:26.981Z,85.10
2022-08-02T06:15:55.779Z,85.00
2022-08-02T06:18:27.927Z,85.00
2022-08-02T06:20:58.642Z,85.10
2022-08-02T06:23:27.921Z,85.00
2022-08-02T06:25:57.493Z,84.90
2022-08-02T06:28:27.561Z,84.90
2022-08-02T06:30:56.409Z,84.80
2022-08-02T06:33:25.122Z,84.80
2022-08-02T06:35:58.747Z,84.80
2022-08-02T06:38:34.021Z,84.80
2022-08-02T06:41:06.421Z,84.80
2022-08-02T06:43:45.808Z,84.70
2022-08-02T06:46:34.062Z,84.60
2022-08-02T06:49:02.589Z,84.60
2022-08-02T06:51:30.421Z,84.60
2022-08-02T06:53:58.181Z,84.60
2022-08-02T06:56:25.937Z,84.50
2022-08-02T06:58:55.101Z,84.60
2022-08-02T07:01:22.904Z,84.50
2022-08-02T07:03:50.759Z,84.40
2022-08-02T07:06:18.539Z,84.40
2022-08-02T07:09:04.969Z,84.40
2022-08-02T07:11:34.178Z,84.40
2022-08-02T07:39:24.093Z,84.20
2022-08-02T07:45:57.311Z,83.90
2022-08-02T07:48:30.035Z,83.90
2022-08-02T07:50:58.411Z,84.00
2022-08-02T07:53:49.907Z,83.90
2022-08-02T07:56:13.931Z,83.80
2022-08-02T07:58:42.625Z,83.80
2022-08-02T08:01:10.556Z,83.70
2022-08-02T08:03:39.704Z,83.70
2022-08-02T08:06:07.446Z,83.50
2022-08-02T08:08:36.087Z,83.40
2022-08-02T08:11:04.507Z,83.20
2022-08-02T08:13:34.953Z,83.10
2022-08-02T08:16:02.985Z,83.00
2022-08-02T08:18:31.016Z,82.90
2022-08-02T08:21:00.606Z,82.80
2022-08-02T08:23:28.639Z,82.70
2022-08-02T08:25:56.418Z,82.50
2022-08-02T08:28:24.313Z,82.40
2022-08-02T08:30:52.315Z,82.30
2022-08-02T08:33:20.251Z,82.20
2022-08-02T08:35:48.820Z,82.00
2022-08-02T08:38:18.834Z,81.80
2022-08-02T08:40:47.626Z,81.50
2022-08-02T08:43:15.449Z,81.40
2022-08-02T08:45:44.939Z,81.20
2022-08-02T08:48:30.576Z,81.20
2022-08-02T08:51:08.082Z,80.80
2022-08-02T08:53:41.614Z,80.40
2022-08-02T08:56:14.109Z,80.30
2022-08-02T08:58:44.535Z,80.10
2022-08-02T09:01:13.954Z,79.90
2022-08-02T09:03:42.173Z,79.60
2022-08-02T09:06:09.987Z,79.30
2022-08-02T09:08:39.059Z,79.20
2022-08-02T09:11:14.551Z,79.10
2022-08-02T09:13:51.025Z,79.10
2022-08-02T09:16:30.024Z,79.00
2022-08-02T09:18:57.882Z,79.00
2022-08-02T09:21:34.473Z,78.90
2022-08-02T09:24:03.732Z,78.70
2022-08-02T09:26:31.975Z,78.70
2022-08-02T09:29:03.459Z,78.50
2022-08-02T09:31:34.900Z,78.30
2022-08-02T09:34:04.345Z,78.20
2022-08-02T09:36:40.364Z,78.10
2022-08-02T09:39:12.391Z,77.90
2022-08-02T09:41:41.989Z,78.00
2022-08-02T09:44:16.174Z,77.90
2022-08-02T09:46:45.244Z,78.50
2022-08-02T09:49:14.429Z,77.60
2022-08-02T09:51:50.429Z,77.40
2022-08-02T09:54:21.218Z,76.90
2022-08-02T09:56:50.643Z,76.80
2022-08-02T09:59:20.413Z,77.10
2022-08-02T10:01:51.091Z,76.80
2022-08-02T10:04:29.801Z,76.70
2022-08-02T10:06:59.374Z,76.60
2022-08-02T10:09:29.284Z,76.40
2022-08-02T10:11:57.854Z,76.40
2022-08-02T10:14:26.649Z,76.10
2022-08-02T10:16:54.953Z,76.00
2022-08-02T10:20:00.120Z,75.90
2022-08-02T10:22:12.675Z,75.90
2022-08-02T10:24:47.795Z,75.90
2022-08-02T10:27:19.585Z,75.90
2022-08-02T10:29:54.731Z,75.40
2022-08-02T10:32:28.216Z,75.60
2022-08-02T10:35:18.938Z,75.50
2022-08-02T10:37:52.248Z,75.60
2022-08-02T10:40:26.532Z,75.40
2022-08-02T10:42:59.326Z,75.40
2022-08-02T10:45:28.554Z,75.30
2022-08-02T10:48:01.686Z,75.00
2022-08-02T10:50:54.543Z,75.00
2022-08-02T10:53:24.713Z,74.80
2022-08-02T10:55:55.180Z,75.00
2022-08-02T10:58:29.672Z,74.90
2022-08-02T11:00:59.173Z,75.00
2022-08-02T11:03:41.064Z,74.80
2022-08-02T11:06:25.868Z,74.50
2022-08-02T11:09:31.975Z,74.30
2022-08-02T11:12:05.385Z,74.20
2022-08-02T11:14:35.651Z,73.70
2022-08-02T11:17:09.033Z,73.40
2022-08-02T11:19:57.067Z,73.50
2022-08-02T11:22:26.068Z,73.40
2022-08-02T11:24:54.019Z,73.30
2022-08-02T11:27:23.472Z,73.20
2022-08-02T11:29:51.385Z,73.30
2022-08-02T11:32:30.779Z,73.40
2022-08-02T11:35:00.342Z,73.00
2022-08-02T11:37:32.246Z,73.10
2022-08-02T11:40:00.082Z,72.60
2022-08-02T11:42:34.334Z,72.10
2022-08-02T11:45:02.254Z,72.30
2022-08-02T11:47:31.448Z,71.50
2022-08-02T11:50:06.214Z,72.60
2022-08-02T11:52:34.897Z,71.90
2022-08-02T11:55:03.132Z,72.10
2022-08-02T11:58:01.533Z,71.70
2022-08-02T12:00:20.273Z,72.40
2022-08-02T12:02:50.459Z,72.70
2022-08-02T12:05:20.883Z,72.50
2022-08-02T12:07:48.931Z,72.10
2022-08-02T12:10:19.528Z,71.90
2022-08-02T12:12:51.770Z,71.60
2022-08-02T12:15:40.878Z,72.00
2022-08-02T12:18:28.304Z,70.90
2022-08-02T12:20:56.172Z,70.80
2022-08-02T12:23:24.243Z,70.70
2022-08-02T12:26:03.038Z,70.50
2022-08-02T12:28:35.205Z,70.60
2022-08-02T12:31:04.280Z,70.60
2022-08-02T12:33:46.986Z,70.60
2022-08-02T12:36:18.238Z,70.30
2022-08-02T12:38:53.526Z,70.30
2022-08-02T12:41:30.421Z,70.20
2022-08-02T12:44:00.473Z,69.60
2022-08-02T12:46:31.349Z,69.60
2022-08-02T12:49:18.513Z,69.80
2022-08-02T12:51:59.069Z,69.60
2022-08-02T12:54:32.155Z,69.50
2022-08-02T12:57:11.158Z,69.20
2022-08-02T12:59:41.370Z,69.40
2022-08-02T13:02:14.373Z,69.20
2022-08-02T13:04:49.913Z,69.40
2022-08-02T13:07:18.790Z,69.40
2022-08-02T13:09:48.110Z,69.20
2022-08-02T13:12:16.519Z,68.80
2022-08-02T13:14:44.667Z,69.80
2022-08-02T13:17:13.995Z,69.00
2022-08-02T13:19:42.760Z,68.70
2022-08-02T13:22:11.796Z,68.60
2022-08-02T13:24:56.667Z,68.80
2022-08-02T13:27:26.486Z,68.80
2022-08-02T13:29:56.060Z,68.80
2022-08-02T13:32:26.145Z,68.90
2022-08-02T13:34:54.062Z,68.10
2022-08-02T13:37:22.460Z,68.20
2022-08-02T13:40:18.808Z,68.10
2022-08-02T13:42:38.282Z,68.10
2022-08-02T13:45:13.337Z,68.00
2022-08-02T13:48:03.830Z,67.80
2022-08-02T13:50:32.518Z,67.70
2022-08-02T13:53:00.327Z,67.60
2022-08-02T13:55:28.209Z,67.40
2022-08-02T13:57:56.134Z,67.30
2022-08-02T14:00:34.721Z,67.40
2022-08-02T14:03:05.992Z,67.80
2022-08-02T14:05:39.679Z,67.60
2022-08-02T14:08:17.102Z,67.00
2022-08-02T14:10:45.429Z,66.50
2022-08-02T14:13:13.190Z,66.50
2022-08-02T14:15:40.936Z,66.50
2022-08-02T14:18:10.065Z,66.70
2022-08-02T14:20:37.808Z,67.30
2022-08-02T14:23:05.569Z,67.30
2022-08-02T14:25:33.550Z,67.20
2022-08-02T14:28:01.314Z,66.50
2022-08-02T14:30:29.098Z,66.60
2022-08-02T14:32:57.315Z,66.10
2022-08-02T14:35:26.414Z,66.30
2022-08-02T14:37:54.352Z,66.50
2022-08-02T14:40:28.171Z,66.40
2022-08-02T14:42:59.580Z,66.00
2022-08-02T14:45:39.978Z,65.80
2022-08-02T14:48:11.218Z,66.10
2022-08-02T14:50:40.453Z,65.80
2022-08-02T14:53:12.684Z,65.70
2022-08-02T14:55:43.281Z,65.30
2022-08-02T14:58:11.269Z,65.20
2022-08-02T15:00:41.099Z,65.20
2022-08-02T15:03:10.100Z,65.30
2022-08-02T15:05:38.079Z,64.80
2022-08-02T15:08:07.809Z,64.60
2022-08-02T15:10:35.572Z,64.50
2022-08-02T15:13:04.973Z,64.80
2022-08-02T15:15:43.182Z,64.70
2022-08-02T15:18:12.044Z,64.80
2022-08-02T15:20:39.788Z,64.40
2022-08-02T15:23:12.317Z,63.90
2022-08-02T15:25:41.895Z,63.60
2022-08-02T15:28:10.710Z,63.50
2022-08-02T15:30:41.200Z,63.80
2022-08-02T15:33:08.963Z,63.80
2022-08-02T15:35:36.781Z,63.80
2022-08-02T15:38:04.653Z,63.90
2022-08-02T15:40:33.902Z,63.70
2022-08-02T15:43:05.573Z,63.70
2022-08-02T15:45:33.355Z,63.60
2022-08-02T15:48:03.815Z,63.40
2022-08-02T15:50:31.688Z,63.20
2022-08-02T15:52:59.421Z,62.80
2022-08-02T15:55:27.407Z,62.60
2022-08-02T15:57:56.500Z,62.60
2022-08-02T16:00:25.514Z,62.80
2022-08-02T16:02:53.881Z,62.70
2022-08-02T16:05:21.698Z,62.60
2022-08-02T16:07:52.322Z,62.70
2022-08-02T16:10:20.311Z,62.60
2022-08-02T16:13:15.196Z,62.50
2022-08-02T16:15:44.315Z,62.10
2022-08-02T16:18:12.077Z,61.60
2022-08-02T16:20:39.936Z,62.30
2022-08-02T16:23:07.707Z,62.10
2022-08-02T16:25:40.059Z,62.20
2022-08-02T16:28:09.556Z,62.40
2022-08-02T16:30:37.443Z,62.50
2022-08-02T16:33:06.638Z,62.40
2022-08-02T16:35:34.871Z,62.50
2022-08-02T16:38:02.658Z,62.40
2022-08-02T16:40:31.752Z,62.40
2022-08-02T16:43:00.359Z,62.40
2022-08-02T16:45:28.353Z,62.50
2022-08-02T16:48:03.662Z,62.10
2022-08-02T16:50:35.531Z,62.00
2022-08-02T16:53:07.433Z,61.30
2022-08-02T16:55:35.818Z,61.90
2022-08-02T16:58:09.650Z,62.20
2022-08-02T17:00:38.205Z,62.50
2022-08-02T17:03:14.167Z,62.40
2022-08-02T17:05:56.966Z,62.80
2022-08-02T17:08:32.060Z,62.70
2022-08-02T17:11:03.255Z,62.90
2022-08-02T17:13:31.969Z,63.00
2022-08-02T17:16:26.014Z,63.20
2022-08-02T17:18:53.730Z,63.20
2022-08-02T17:21:22.842Z,63.30
2022-08-02T17:24:04.908Z,63.60
2022-08-02T17:26:34.826Z,63.40
2022-08-02T17:29:15.097Z,63.70
2022-08-02T17:32:12.634Z,63.90
2022-08-02T17:34:35.417Z,64.10
2022-08-02T17:37:05.494Z,64.30
2022-08-02T17:39:43.975Z,64.60
2022-08-02T17:42:20.095Z,64.90
2022-08-02T17:44:50.884Z,64.80
2022-08-02T17:47:19.558Z,65.00
2022-08-02T17:49:48.598Z,64.90
2022-08-02T17:52:50.832Z,65.00
2022-08-02T17:55:07.233Z,65.20
2022-08-02T17:57:58.142Z,65.30
2022-08-02T18:00:24.450Z,65.40
2022-08-02T18:02:55.418Z,65.60
2022-08-02T18:05:38.947Z,65.70
2022-08-02T18:08:11.128Z,65.70
2022-08-02T18:10:41.881Z,65.90
2022-08-02T18:13:09.616Z,66.20
2022-08-02T18:15:39.894Z,66.20
2022-08-02T18:18:08.120Z,66.30
2022-08-02T18:20:37.301Z,66.50
2022-08-02T18:23:05.561Z,66.50
2022-08-02T18:25:45.648Z,66.70
2022-08-02T18:28:15.946Z,66.90
2022-08-02T18:30:45.132Z,66.90
2022-08-02T18:33:58.495Z,67.00
2022-08-02T18:36:00.678Z,67.10
2022-08-02T18:38:30.146Z,67.30
2022-08-02T18:41:03.108Z,67.30
2022-08-02T18:43:32.051Z,67.60
2022-08-02T18:46:15.539Z,67.80
2022-08-02T18:48:46.258Z,67.90
2022-08-02T18:51:18.633Z,67.90
2022-08-02T18:53:50.750Z,68.00
2022-08-02T18:56:24.564Z,68.00
2022-08-02T18:58:56.228Z,68.70
2022-08-02T19:01:33.510Z,68.00
2022-08-02T19:04:04.891Z,68.10
2022-08-02T19:06:34.981Z,68.10
2022-08-02T19:09:12.596Z,68.30
2022-08-02T19:11:47.917Z,68.30
2022-08-02T19:14:24.310Z,68.40
2022-08-02T19:16:56.202Z,68.40
2022-08-02T19:19:28.722Z,68.60
2022-08-02T19:22:16.518Z,68.60
2022-08-02T19:24:46.165Z,68.60
2022-08-02T19:27:20.704Z,68.80
2022-08-02T19:29:54.012Z,68.90
2022-08-02T19:32:39.692Z,69.00
2022-08-02T19:35:19.130Z,69.10
2022-08-02T19:37:59.330Z,69.10
2022-08-02T19:40:29.079Z,69.20
2022-08-02T19:44:23.585Z,69.30
2022-08-02T19:45:51.008Z,69.40
2022-08-02T19:48:23.672Z,69.50
2022-08-02T19:50:56.262Z,69.50
2022-08-02T19:53:28.993Z,69.60
2022-08-02T19:56:20.531Z,69.70
2022-08-02T19:58:51.568Z,69.80
2022-08-02T20:01:25.411Z,69.90
2022-08-02T20:06:56.050Z,70.20
2022-08-02T20:09:28.186Z,70.30
2022-08-02T20:12:03.651Z,70.40
2022-08-02T20:14:33.439Z,70.50
2022-08-02T20:17:04.780Z,70.60
2022-08-02T20:19:33.369Z,70.60
2022-08-02T20:22:05.450Z,70.80
2022-08-02T20:24:34.935Z,70.90
2022-08-02T20:27:04.425Z,70.90
2022-08-02T20:29:43.133Z,71.00
2022-08-02T20:32:21.331Z,71.10
2022-08-02T20:34:51.054Z,71.20
2022-08-02T20:37:59.721Z,71.30
2022-08-02T20:40:10.060Z,71.40
2022-08-02T20:42:45.010Z,71.50
2022-08-02T20:45:17.470Z,71.70
2022-08-02T20:47:49.898Z,71.70
2022-08-02T20:50:39.572Z,71.80
2022-08-02T20:53:08.948Z,72.00
2022-08-02T20:55:53.767Z,72.00
2022-08-02T20:58:27.147Z,72.20
2022-08-02T21:00:59.204Z,72.20
2022-08-02T21:03:39.144Z,72.30
2022-08-02T21:06:08.485Z,72.30
2022-08-02T21:08:36.305Z,72.40
2022-08-02T21:11:09.430Z,72.40
2022-08-02T21:13:47.008Z,72.50
2022-08-02T21:16:29.728Z,72.40
2022-08-02T21:19:00.026Z,72.50
2022-08-02T21:21:30.063Z,72.60
2022-08-02T21:23:59.056Z,72.60
2022-08-02T21:26:30.995Z,72.60
2022-08-02T21:29:04.153Z,72.80
2022-08-02T21:31:36.492Z,72.80
2022-08-02T21:34:21.667Z,72.90
2022-08-02T21:36:51.045Z,72.90
2022-08-02T21:39:20.144Z,73.00
2022-08-02T21:41:48.942Z,73.20
2022-08-02T21:44:17.125Z,73.30
2022-08-02T21:46:49.175Z,73.30
2022-08-02T21:49:18.000Z,73.30
2022-08-02T21:51:49.605Z,73.50
2022-08-02T21:54:20.239Z,73.60
2022-08-02T21:56:50.256Z,73.70
2022-08-02T21:59:25.848Z,73.70
2022-08-02T22:01:56.924Z,73.80
2022-08-02T22:04:25.907Z,73.90
2022-08-02T22:07:13.201Z,74.00
2022-08-02T22:09:43.883Z,74.00
2022-08-02T22:12:17.772Z,74.10
2022-08-02T22:14:53.838Z,74.10
2022-08-02T22:17:50.818Z,74.20
2022-08-02T22:20:14.070Z,75.00
2022-08-02T22:22:44.466Z,74.30
2022-08-02T22:25:26.444Z,74.40
2022-08-02T22:28:34.712Z,74.40
2022-08-02T22:30:50.586Z,74.50
2022-08-02T22:33:42.274Z,74.50
2022-08-02T22:36:11.613Z,74.70
2022-08-02T22:38:39.589Z,74.70
2022-08-02T22:41:13.280Z,74.70
2022-08-02T22:43:41.042Z,74.80
2022-08-02T22:46:09.234Z,74.90
2022-08-02T22:48:40.044Z,74.90
2022-08-02T22:51:09.638Z,75.00
2022-08-02T22:53:37.397Z,75.00
2022-08-02T22:56:06.714Z,75.10
2022-08-02T22:58:54.319Z,70.10
2022-08-02T22:59:05.534Z,75.30
2022-08-02T23:01:24.447Z,75.20
2022-08-02T23:03:53.614Z,75.30
2022-08-02T23:06:22.749Z,75.40
2022-08-02T23:08:51.831Z,75.50
2022-08-02T23:11:23.643Z,75.70
2022-08-02T23:13:51.438Z,75.70
2022-08-02T23:16:37.545Z,75.70
2022-08-02T23:19:24.571Z,75.70
2022-08-02T23:22:02.820Z,75.80
2022-08-02T23:24:33.029Z,75.80
2022-08-02T23:27:01.085Z,75.90
2022-08-02T23:29:28.892Z,76.00
2022-08-02T23:31:56.629Z,76.00
2022-08-02T23:34:28.149Z,76.10
2022-08-02T23:36:56.031Z,76.10
2022-08-02T23:39:23.843Z,76.20
2022-08-02T23:41:55.214Z,76.30
2022-08-02T23:44:23.646Z,76.30
2022-08-02T23:46:51.736Z,76.30
2022-08-02T23:49:20.205Z,76.40
2022-08-02T23:51:49.416Z,76.40
2022-08-02T23:54:17.971Z,76.60
2022-08-02T23:56:47.113Z,76.50
2022-08-02T23:59:14.951Z,76.60
